Details From OMRK - RAS AL KHAIMAH INTL
To ORSU - SULAYMANIYAH INTL
Flight Number -
Tags decoded
Created
Modified
Stats Distance 866 nm / 1,605 km
Max Altitude 0 ft / 0 m
Waypoints 6
Social Downloads 0
Likes 0
Share VATSIM

Download

Looking for another format? Having issues loading an existing format? Contact us
Advertisement - Login to hide

Notes

Requested: OMRK RAV NADNI M677 SERSA ATBOR M557 TUMAK UL602 ITBIT UM860 UMESA M434 DAVAS SUL ORSU Unmatched points: M677 SERSA M557 UL602 ITBIT UM860 UMESA M434 DAVAS

Route

OMRK RAV NADNI ATBOR SUL ORSU

ID Type Via Altitude Latitude Longitude Leg Dist Tot Dist Heading (true) Name
O OMRK APT - 0 ft / 0 m 25.61335˚ 55.93883˚ - 0 nm - RAS AL KHAIMAH INTL
RAV VOR - 0 ft / 0 m 25.58843˚ 55.94633˚ 1 nm 1 nm 165° / 165° RAS AL KHAIMAH VOR-DME
NADNI FIX - 0 ft / 0 m 25.32083˚ 55.94972˚ 16 nm 17 nm 179° / 179° -
ATBOR FIX - 0 ft / 0 m 25.16861˚ 55.32972˚ 34 nm 52 nm 255° / 255° -
SUL VOR - 0 ft / 0 m 35.57958˚ 45.29007˚ 812 nm 864 nm 323° / 318° SULAYMANIYAH VOR
O ORSU APT - 0 ft / 0 m 35.56086˚ 45.31466˚ 1 nm 866 nm 133° / 133° SULAYMANIYAH INTL

Altitude Profile

Advertisement - Login to hide

Weather


0- 5 10 15 20 25 30 35+ Temperature / ° C

Clouds and Precipitation
Forecast for 2017-12-11 12:00 UTC. Updated a minute ago

Ground ~20,000 ft ~40,000 ft Winds

OMRK

Details ICAO OMRK (RKT)
Name RAS AL KHAIMAH INTL
Region United Arab Emirates
Timezone Asia/Dubai (UTC+4.0)
Stats Elevation 102 ft / 31 m (AMSL)
Location 25.613352° 55.938831°
Runways 1
Magnetic Variation 2.052° E

METAR

OMRK 111100Z 32008KT CAVOK 26/13 Q1017 A3005

Decode

TAF

TAF OMRK 110455Z 1106/1212 21005KT 8000 NSC BECMG 1107/1109 30010KT BECMG 1115/1117 18005KT PROB30 1200/1205 4000 HZ BECMG 1206/1208 29010KT

Decode

Departure Runways

ID Width Length Bearing (true) Bearing (mag) Surface Threshold Offset Overrun Length
16 148 ft / 45 m 12,391 ft / 3,777 m 164.83° 162.78° Asphalt 0 ft / 0 m 165 ft / 50 m
34 148 ft / 45 m 12,391 ft / 3,777 m 344.84° 342.79° Asphalt 0 ft / 0 m 165 ft / 50 m

ORSU

Details ICAO ORSU (ISU)
Name SULAYMANIYAH INTL
Region Iraq
Timezone Asia/Baghdad (UTC+3.0)
Stats Elevation 2,494 ft / 760 m (AMSL)
Location 35.560856° 45.314664°
Runways 1
Magnetic Variation 5.040° E

METAR

ORSU 111100Z VRB02KT CAVOK 14/M02 Q1025

Decode

TAF

Not found

Destination Runways

ID Width Length Bearing (true) Bearing (mag) Surface Threshold Offset Overrun Length
13 148 ft / 45 m 11,482 ft / 3,500 m 133.03° 127.99° Concrete 0 ft / 0 m 200 ft / 61 m
31 148 ft / 45 m 11,482 ft / 3,500 m 313.04° 308.00° Concrete 0 ft / 0 m 200 ft / 61 m

Approach Navaids

Runway Type Ident Frequency Range Bearing (true) Bearing (mag) Slope Elevation
31 Localiser RNJ 111.70 MHz 18 nm / 33 km 313.02° 307.98° - 2,505 ft / 764 m (AMSL)
31 Glidescope RNJ 111.70 MHz 10 nm / 19 km 313.03° 307.99° 3.00° 2,440 ft / 744 m (AMSL)
31 DME RNJ 111.70 MHz 18 nm / 33 km - - - 2,440 ft / 744 m (AMSL)

Popular Alternatives